Time;durP1;ratioP1;P1;durP2;ratioP2;P2;SDS_P1;SDS_P2;PMS_P1;PMS_P2;Temp;Humidity;BMP_temperature;BMP_pressure;BME280_temperature;BME280_humidity;BME280_pressure;Samples;Min_cycle;Max_cycle;Signal;HPM_P1;HPM_P2
2022/03/11 00:00:06;;;;;;;5.00;3.90;;;;;;;-7.80;49.53;98572.75;109825;1250;70845;-65
2022/03/11 00:03:05;;;;;;;3.20;2.50;;;;;;;-7.87;49.40;98568.05;110192;1244;68617;-62
2022/03/11 00:05:35;;;;;;;7.00;4.90;;;;;;;-7.95;49.10;98568.25;110058;1247;69397;-66
2022/03/11 00:08:06;;;;;;;9.00;5.40;;;;;;;-8.05;51.10;98569.41;110342;1244;59339;-62
2022/03/11 00:10:36;;;;;;;6.10;4.40;;;;;;;-8.12;50.77;98567.40;110179;1245;58867;-63
2022/03/11 00:13:06;;;;;;;5.50;4.50;;;;;;;-8.19;49.96;98569.13;110146;1247;69083;-62
2022/03/11 00:15:35;;;;;;;6.70;4.40;;;;;;;-8.28;50.52;98572.67;110180;1247;68673;-65
2022/03/11 00:18:06;;;;;;;6.80;4.50;;;;;;;-8.32;50.66;98571.75;110149;1247;69459;-65
2022/03/11 00:20:36;;;;;;;8.60;4.90;;;;;;;-8.36;51.54;98571.00;110188;1245;58904;-64
2022/03/11 00:23:06;;;;;;;7.30;4.90;;;;;;;-8.41;51.13;98567.03;109723;1247;59331;-65
2022/03/11 00:25:36;;;;;;;;;;;;;;;-8.45;51.09;98571.17;110128;1245;70676;-65
2022/03/11 00:28:07;;;;;;;7.20;4.00;;;;;;;-8.51;51.14;98575.61;110409;1244;68428;-66
2022/03/11 00:30:37;;;;;;;8.00;4.60;;;;;;;-8.57;50.66;98573.79;110356;1244;68596;-64
2022/03/11 00:33:07;;;;;;;;;;;;;;;-8.65;53.09;98571.41;110079;1247;58911;-61
2022/03/11 00:35:37;;;;;;;11.00;4.40;;;;;;;-8.70;53.62;98574.35;110157;1247;58875;-62
2022/03/11 00:38:07;;;;;;;8.10;4.80;;;;;;;-8.74;52.56;98571.91;110100;1247;70243;-65
2022/03/11 00:40:38;;;;;;;4.80;3.50;;;;;;;-8.80;53.28;98571.94;110169;1246;67662;-63
2022/03/11 00:43:08;;;;;;;8.70;5.70;;;;;;;-8.85;52.04;98568.12;110150;1245;68497;-62
2022/03/11 00:45:38;;;;;;;;;;;;;;;-8.90;54.42;98564.27;110418;1244;59183;-65
2022/03/11 00:48:08;;;;;;;6.70;5.10;;;;;;;-8.97;55.50;98563.62;110193;1245;58864;-65
2022/03/11 00:50:38;;;;;;;7.50;5.10;;;;;;;-9.06;56.28;98562.06;110118;1245;70566;-67
2022/03/11 00:53:07;;;;;;;5.00;4.10;;;;;;;-9.11;55.96;98561.77;110002;1245;67700;-65
2022/03/11 00:55:37;;;;;;;8.10;5.00;;;;;;;-9.15;54.89;98560.34;109817;1247;69468;-64
2022/03/11 00:58:07;;;;;;;8.30;5.20;;;;;;;-9.23;55.97;98559.82;110192;1244;58944;-63
2022/03/11 01:00:36;;;;;;;8.50;5.20;;;;;;;-9.28;56.76;98558.69;110067;1247;58927;-62
2022/03/11 01:03:06;;;;;;;8.40;5.50;;;;;;;-9.28;56.36;98559.20;110202;1246;69974;-62
2022/03/11 01:05:36;;;;;;;7.40;4.60;;;;;;;-9.28;56.16;98557.17;110144;1247;68404;-63
2022/03/11 01:08:08;;;;;;;9.80;5.60;;;;;;;-9.29;55.80;98557.13;110375;1244;68599;-63
2022/03/11 01:10:38;;;;;;;6.80;3.90;;;;;;;-9.30;55.32;98559.46;110436;1244;58951;-64
2022/03/11 01:13:08;;;;;;;6.80;4.10;;;;;;;-9.34;55.23;98555.16;110140;1244;58895;-62
2022/03/11 01:15:38;;;;;;;6.60;4.70;;;;;;;-9.38;54.69;98555.56;110097;1247;70066;-66
2022/03/11 01:18:09;;;;;;;4.80;3.00;;;;;;;-9.44;54.63;98555.92;110160;1245;67708;-63
2022/03/11 01:20:38;;;;;;;4.70;3.50;;;;;;;-9.48;54.42;98555.66;110255;1244;68789;-67
2022/03/11 01:23:08;;;;;;;6.30;4.40;;;;;;;-9.49;53.29;98555.46;110153;1246;58960;-63
2022/03/11 01:25:38;;;;;;;8.30;4.70;;;;;;;-9.51;54.65;98554.92;110219;1247;58882;-64
2022/03/11 01:28:09;;;;;;;4.50;2.80;;;;;;;-9.51;53.85;98556.96;110216;1244;70019;-62
2022/03/11 01:30:40;;;;;;;8.10;5.10;;;;;;;-9.54;54.66;98561.08;110202;1244;69232;-62
2022/03/11 01:33:10;;;;;;;6.20;3.40;;;;;;;-9.60;56.78;98561.44;110401;1244;69718;-63
2022/03/11 01:35:40;;;;;;;6.60;4.20;;;;;;;-9.63;54.23;98565.08;110290;1245;58923;-62
2022/03/11 01:38:10;;;;;;;;;;;;;;;-9.69;55.21;98567.96;110093;1247;58948;-61
2022/03/11 01:40:41;;;;;;;7.70;4.70;;;;;;;-9.74;57.91;98571.21;110134;1247;70731;-63
2022/03/11 01:43:16;;;;;;;7.60;4.40;;;;;;;-9.78;56.51;98573.64;110124;1246;67806;-62
2022/03/11 01:45:47;;;;;;;6.20;4.20;;;;;;;-9.83;56.33;98567.95;110461;1244;69389;-61
2022/03/11 01:48:18;;;;;;;4.30;2.80;;;;;;;-9.82;54.76;98565.77;110444;1244;58886;-65
2022/03/11 01:50:49;;;;;;;5.90;3.60;;;;;;;-9.77;53.81;98564.71;110133;1245;58941;-65
2022/03/11 01:53:20;;;;;;;7.60;3.50;;;;;;;-9.65;55.26;98558.11;110197;1245;69712;-66
2022/03/11 01:55:49;;;;;;;6.50;5.20;;;;;;;-9.59;55.31;98554.20;110196;1244;68821;-63
2022/03/11 01:58:21;;;;;;;;;;;;;;;-9.55;56.21;98551.61;110455;1244;70107;-62
2022/03/11 02:00:51;;;;;;;8.90;4.90;;;;;;;-9.59;56.94;98551.84;110050;1247;58958;-62
2022/03/11 02:03:21;;;;;;;10.10;7.10;;;;;;;-9.66;56.10;98553.88;110154;1244;58902;-66
2022/03/11 02:05:51;;;;;;;8.20;5.40;;;;;;;-9.80;57.18;98556.39;109850;1246;69724;-64
2022/03/11 02:08:22;;;;;;;6.20;4.80;;;;;;;-9.93;56.52;98554.35;110145;1245;67112;-62
2022/03/11 02:10:55;;;;;;;6.60;5.00;;;;;;;-10.01;56.51;98551.79;110110;1244;69292;-64
2022/03/11 02:13:26;;;;;;;7.40;4.60;;;;;;;-10.03;56.13;98546.34;110157;1244;58938;-62
2022/03/11 02:15:55;;;;;;;;;;;;;;;-10.01;55.94;98545.21;110196;1244;58926;-63
2022/03/11 02:18:26;;;;;;;6.20;4.10;;;;;;;-9.97;55.13;98541.59;110434;1244;69951;-61
2022/03/11 02:20:57;;;;;;;5.90;4.30;;;;;;;-9.93;55.00;98540.17;110427;1244;67812;-66
2022/03/11 02:23:29;;;;;;;9.50;4.70;;;;;;;-9.87;55.35;98541.52;110132;1247;68592;-64
2022/03/11 02:26:00;;;;;;;8.20;4.70;;;;;;;-9.85;55.74;98537.50;109970;1247;58870;-65
2022/03/11 02:28:33;;;;;;;9.20;4.30;;;;;;;-9.90;55.80;98539.08;110436;1244;58794;-66
2022/03/11 02:31:03;;;;;;;4.90;3.60;;;;;;;-9.95;54.93;98540.96;110123;1247;70797;-66
2022/03/11 02:33:34;;;;;;;7.60;5.10;;;;;;;-10.02;54.55;98541.63;110122;1247;68098;-66
2022/03/11 02:36:05;;;;;;;5.90;4.20;;;;;;;-10.12;56.20;98539.52;110094;1247;68412;-65
2022/03/11 02:38:36;;;;;;;3.90;2.90;;;;;;;-10.19;56.34;98543.88;110176;1247;58932;-64
2022/03/11 02:41:07;;;;;;;6.70;4.50;;;;;;;-10.23;55.63;98542.77;110046;1247;58950;-66
2022/03/11 02:43:38;;;;;;;6.40;4.10;;;;;;;-10.29;57.44;98544.16;110063;1247;69873;-65
2022/03/11 02:46:09;;;;;;;3.60;3.10;;;;;;;-10.33;57.05;98543.03;110105;1247;67778;-66
2022/03/11 02:48:41;;;;;;;8.50;5.00;;;;;;;-10.37;55.99;98545.44;110078;1247;69326;-65
2022/03/11 02:51:11;;;;;;;12.90;8.50;;;;;;;-10.44;58.83;98547.95;110084;1247;58868;-66
2022/03/11 02:53:42;;;;;;;15.90;7.80;;;;;;;-10.54;61.15;98547.84;109850;1247;58957;-62
2022/03/11 02:56:13;;;;;;;10.40;7.00;;;;;;;-10.63;61.21;98543.71;109516;1247;899782;-64
2022/03/11 02:58:43;;;;;;;8.30;5.30;;;;;;;-10.67;60.66;98551.14;110095;1247;67451;-62
2022/03/11 03:01:13;;;;;;;9.40;4.50;;;;;;;-10.69;59.14;98557.00;110085;1246;68399;-62
2022/03/11 03:03:46;;;;;;;9.50;5.80;;;;;;;-10.72;57.62;98557.59;110140;1247;58879;-62
2022/03/11 03:06:19;;;;;;;10.00;5.60;;;;;;;-10.75;58.65;98557.16;109980;1247;58884;-66
2022/03/11 03:08:49;;;;;;;10.00;7.40;;;;;;;-10.78;58.78;98558.25;110077;1247;69814;-64
2022/03/11 03:11:19;;;;;;;;;;;;;;;-10.82;59.99;98557.64;109915;1247;67827;-64
2022/03/11 03:13:50;;;;;;;7.80;5.10;;;;;;;-10.85;59.58;98556.73;110030;1247;69495;-64
2022/03/11 03:16:20;;;;;;;9.80;5.80;;;;;;;-10.86;60.10;98557.84;110009;1247;58893;-65
2022/03/11 03:18:51;;;;;;;7.90;5.60;;;;;;;-10.88;58.86;98555.77;110116;1247;58873;-66
2022/03/11 03:21:21;;;;;;;;;;;;;;;-10.89;57.22;98558.27;110084;1247;70016;-67
2022/03/11 03:23:52;;;;;;;;;;;;;;;-10.90;57.68;98555.56;110110;1247;68397;-63
2022/03/11 03:26:23;;;;;;;7.80;4.90;;;;;;;-10.90;58.52;98554.86;110088;1247;69223;-63
2022/03/11 03:28:53;;;;;;;5.10;3.40;;;;;;;-10.90;59.04;98557.40;109846;1247;58891;-63
2022/03/11 03:31:24;;;;;;;7.60;6.00;;;;;;;-10.79;57.95;98558.08;109798;1247;58942;-62
2022/03/11 03:33:55;;;;;;;9.20;5.30;;;;;;;-10.67;58.40;98559.27;110130;1247;70186;-64
2022/03/11 03:36:24;;;;;;;9.10;6.10;;;;;;;-10.65;58.32;98562.33;110135;1247;68412;-62
2022/03/11 03:38:55;;;;;;;;;;;;;;;-10.71;58.81;98565.20;110101;1247;68460;-63
2022/03/11 03:41:25;;;;;;;6.20;3.90;;;;;;;-10.77;57.72;98570.42;110037;1247;58926;-66
2022/03/11 03:43:55;;;;;;;3.40;3.10;;;;;;;-10.82;57.52;98573.63;110378;1244;58931;-66
2022/03/11 03:46:25;;;;;;;5.90;5.00;;;;;;;-10.85;57.63;98570.52;110196;1244;70726;-66
2022/03/11 03:48:55;;;;;;;5.40;4.70;;;;;;;-10.91;61.07;98571.84;110126;1246;68075;-66
2022/03/11 03:51:25;;;;;;;10.10;4.80;;;;;;;-10.88;58.65;98570.77;110324;1243;68614;-62
2022/03/11 03:53:55;;;;;;;;;;;;;;;-10.88;58.35;98572.61;110161;1247;58944;-61
2022/03/11 03:56:25;;;;;;;9.30;5.70;;;;;;;-10.87;58.36;98572.13;110432;1244;58933;-63
2022/03/11 03:58:55;;;;;;;8.40;5.40;;;;;;;-10.93;58.29;98575.17;110062;1245;69856;-61
2022/03/11 04:01:27;;;;;;;6.70;4.20;;;;;;;-11.06;60.83;98579.80;110127;1244;68633;-63
2022/03/11 04:03:57;;;;;;;4.50;3.60;;;;;;;-11.15;60.15;98581.89;110021;1247;68470;-64
2022/03/11 04:06:30;;;;;;;9.40;5.80;;;;;;;-11.21;59.85;98582.52;110149;1247;58971;-62
2022/03/11 04:09:00;;;;;;;10.10;6.80;;;;;;;-11.31;61.48;98582.24;110153;1244;58895;-62
2022/03/11 04:11:30;;;;;;;;;;;;;;;-11.38;62.70;98578.81;110220;1245;69532;-62
2022/03/11 04:14:00;;;;;;;9.90;6.20;;;;;;;-11.45;63.08;98574.70;110485;1244;67752;-61
2022/03/11 04:16:30;;;;;;;;;;;;;;;-11.55;63.26;98572.87;110294;1244;69271;-64
2022/03/11 04:18:59;;;;;;;5.60;5.10;;;;;;;-11.53;60.56;98570.24;110290;1244;58941;-67
2022/03/11 04:21:30;;;;;;;9.10;4.90;;;;;;;-11.53;60.38;98572.95;110284;1244;58875;-67
2022/03/11 04:23:59;;;;;;;12.60;7.00;;;;;;;-11.51;60.46;98573.82;110098;1244;70973;-65
2022/03/11 04:26:30;;;;;;;8.40;6.70;;;;;;;-11.52;61.40;98577.66;110325;1244;68600;-64
2022/03/11 04:29:00;;;;;;;8.00;5.30;;;;;;;-11.56;61.09;98575.20;110127;1244;68637;-65
2022/03/11 04:31:30;;;;;;;17.10;9.60;;;;;;;-11.58;62.65;98579.16;110382;1244;58893;-66
2022/03/11 04:34:02;;;;;;;8.20;4.50;;;;;;;-11.64;62.17;98575.25;110468;1244;58824;-65
2022/03/11 04:36:33;;;;;;;8.90;5.70;;;;;;;-11.65;60.94;98569.33;110381;1244;71500;-65
2022/03/11 04:39:04;;;;;;;11.40;8.20;;;;;;;-11.64;61.21;98569.91;110167;1245;67830;-64
2022/03/11 04:41:34;;;;;;;12.10;6.10;;;;;;;-11.66;62.73;98575.88;110387;1244;68654;-65
2022/03/11 04:44:04;;;;;;;12.40;6.70;;;;;;;-11.68;63.76;98573.77;110447;1244;58951;-66
2022/03/11 04:46:34;;;;;;;9.40;5.80;;;;;;;-11.73;63.79;98568.05;110115;1244;58917;-61
2022/03/11 04:49:03;;;;;;;8.00;5.50;;;;;;;-11.75;61.66;98570.19;110442;1244;69114;-66
2022/03/11 04:51:33;;;;;;;4.20;3.70;;;;;;;-11.77;61.57;98571.98;110391;1244;68828;-65
2022/03/11 04:54:03;;;;;;;17.90;11.40;;;;;;;-11.82;62.41;98570.98;110328;1244;69390;-66
2022/03/11 04:56:33;;;;;;;;;;;;;;;-11.89;64.23;98573.63;110111;1247;58893;-66
2022/03/11 04:59:03;;;;;;;7.40;6.10;;;;;;;-11.92;64.30;98574.52;110126;1247;58887;-70
2022/03/11 05:01:33;;;;;;;7.50;5.00;;;;;;;-11.91;64.24;98575.05;110070;1245;70810;-65
2022/03/11 05:04:03;;;;;;;19.40;11.20;;;;;;;-11.80;65.08;98575.59;110359;1244;67141;-65
2022/03/11 05:06:33;;;;;;;13.90;7.20;;;;;;;-11.66;65.33;98580.73;110114;1247;68647;-65
2022/03/11 05:09:02;;;;;;;17.80;12.10;;;;;;;-11.53;64.63;98588.92;110124;1247;58941;-65
2022/03/11 05:11:31;;;;;;;10.70;8.20;;;;;;;-11.35;64.86;98596.56;110098;1247;58958;-62
2022/03/11 05:14:01;;;;;;;14.10;9.30;;;;;;;-11.10;64.11;98595.50;110328;1244;70744;-64
2022/03/11 05:16:30;;;;;;;24.30;13.20;;;;;;;-10.82;63.77;98597.89;110072;1247;67826;-62
2022/03/11 05:19:00;;;;;;;16.80;10.50;;;;;;;-10.67;62.94;98598.16;110112;1247;68849;-62
2022/03/11 05:21:29;;;;;;;14.20;8.10;;;;;;;-10.61;62.24;98601.05;110174;1247;58942;-65
2022/03/11 05:23:59;;;;;;;10.00;7.00;;;;;;;-10.47;61.74;98606.66;110382;1244;58941;-66
2022/03/11 05:26:29;;;;;;;16.40;10.30;;;;;;;-10.25;61.62;98605.61;110137;1245;68770;-65
2022/03/11 05:28:59;;;;;;;18.60;11.80;;;;;;;-9.99;61.41;98607.16;110118;1244;68630;-65
2022/03/11 05:31:28;;;;;;;14.60;8.70;;;;;;;-9.68;61.69;98603.09;110367;1244;68469;-66
2022/03/11 05:33:58;;;;;;;20.80;12.70;;;;;;;-9.28;61.11;98609.32;110094;1247;58946;-64
2022/03/11 05:36:27;;;;;;;26.40;14.20;;;;;;;-8.96;58.85;98606.72;110411;1244;58862;-63
2022/03/11 05:38:57;;;;;;;23.90;14.40;;;;;;;-8.66;57.40;98609.09;110383;1244;70733;-61
2022/03/11 05:41:27;;;;;;;17.10;10.70;;;;;;;-8.51;56.55;98604.52;110123;1244;68568;-61
2022/03/11 05:43:56;;;;;;;13.70;8.60;;;;;;;-8.17;57.10;98610.78;110408;1244;69548;-66
2022/03/11 05:46:26;;;;;;;16.70;11.40;;;;;;;-7.74;58.45;98610.09;110373;1244;58941;-62
2022/03/11 05:48:56;;;;;;;12.50;9.10;;;;;;;-7.36;57.40;98614.16;110379;1244;58949;-63
2022/03/11 05:51:25;;;;;;;16.00;10.90;;;;;;;-6.99;55.78;98614.62;110282;1244;70726;-66
2022/03/11 05:53:55;;;;;;;20.70;12.90;;;;;;;-6.64;56.05;98613.95;110129;1244;68581;-67
2022/03/11 05:56:24;;;;;;;20.80;13.20;;;;;;;-6.41;52.77;98612.23;110359;1244;69504;-66
2022/03/11 05:58:54;;;;;;;18.60;12.60;;;;;;;-6.12;51.71;98608.55;110189;1244;58960;-65
2022/03/11 06:01:24;;;;;;;15.10;8.80;;;;;;;-5.85;52.69;98607.16;110218;1243;58930;-64
2022/03/11 06:03:53;;;;;;;9.70;6.80;;;;;;;-5.50;54.20;98607.35;110173;1245;70640;-63
2022/03/11 06:06:22;;;;;;;21.20;12.80;;;;;;;-5.05;53.53;98605.88;110305;1244;68601;-67
2022/03/11 06:08:52;;;;;;;24.90;17.00;;;;;;;-4.68;51.88;98607.86;110399;1244;69456;-62
2022/03/11 06:11:23;;;;;;;30.00;16.40;;;;;;;-4.32;48.57;98608.10;110420;1244;58874;-63
2022/03/11 06:13:53;;;;;;;18.80;13.20;;;;;;;-4.14;48.13;98604.27;110328;1244;58799;-64
2022/03/11 06:16:22;;;;;;;20.10;13.60;;;;;;;-3.79;49.02;98600.66;110458;1244;70751;-62
2022/03/11 06:18:51;;;;;;;15.10;9.20;;;;;;;-3.52;50.78;98602.96;110122;1244;67921;-62
2022/03/11 06:21:21;;;;;;;18.70;11.80;;;;;;;-3.21;46.33;98599.59;110417;1244;68627;-65
2022/03/11 06:23:51;;;;;;;19.60;13.30;;;;;;;-2.94;48.27;98600.63;110104;1244;58957;-67
2022/03/11 06:26:21;;;;;;;18.30;12.80;;;;;;;-2.86;42.97;98597.55;110175;1244;58935;-66
2022/03/11 06:28:50;;;;;;;26.40;16.70;;;;;;;-2.57;44.76;98596.66;110374;1244;69799;-67
2022/03/11 06:31:20;;;;;;;17.30;11.00;;;;;;;-2.35;44.36;98596.80;110129;1244;68102;-68
2022/03/11 06:33:49;;;;;;;24.30;14.60;;;;;;;-3.07;41.62;98595.94;110477;1245;69401;-66
2022/03/11 06:36:19;;;;;;;18.90;12.00;;;;;;;-3.30;41.77;98598.55;110387;1244;58941;-68
2022/03/11 06:38:48;;;;;;;9.00;6.40;;;;;;;-2.75;41.30;98595.66;110277;1244;58937;-67
2022/03/11 06:41:18;;;;;;;8.90;5.40;;;;;;;-2.21;40.27;98589.92;110420;1243;70746;-65
2022/03/11 06:43:47;;;;;;;8.70;5.60;;;;;;;-1.77;39.66;98593.86;110386;1244;68624;-62
2022/03/11 06:46:19;;;;;;;7.80;4.50;;;;;;;-1.30;38.13;98594.80;110118;1245;69400;-65
2022/03/11 06:48:49;;;;;;;8.00;4.90;;;;;;;-0.86;37.79;98594.47;110120;1244;58964;-70
2022/03/11 06:51:19;;;;;;;6.40;4.40;;;;;;;-0.63;35.78;98592.90;109909;1248;58951;-63
2022/03/11 06:53:48;;;;;;;10.00;7.10;;;;;;;-0.32;34.54;98594.48;110151;1247;70796;-65
2022/03/11 06:56:18;;;;;;;7.50;4.90;;;;;;;-0.26;34.14;98593.38;110319;1244;67897;-65
2022/03/11 06:58:47;;;;;;;12.10;8.00;;;;;;;0.33;36.49;98595.60;110417;1244;69458;-66
2022/03/11 07:01:18;;;;;;;12.30;8.10;;;;;;;0.85;32.76;98589.20;110341;1245;58899;-64
2022/03/11 07:03:48;;;;;;;8.90;5.30;;;;;;;0.86;30.80;98588.00;110080;1244;59005;-66
2022/03/11 07:06:22;;;;;;;12.40;8.20;;;;;;;1.04;32.07;98587.70;110296;1245;70276;-66
2022/03/11 07:08:51;;;;;;;7.00;4.70;;;;;;;0.99;31.54;98587.27;110138;1245;67845;-67
2022/03/11 07:11:21;;;;;;;9.30;6.20;;;;;;;0.87;30.66;98583.33;110111;1247;68632;-65
2022/03/11 07:13:51;;;;;;;7.60;4.70;;;;;;;0.49;31.03;98585.45;110179;1245;58886;-65
2022/03/11 07:16:20;;;;;;;8.10;5.30;;;;;;;0.87;32.11;98584.90;110106;1245;58871;-65
2022/03/11 07:18:49;;;;;;;8.70;6.10;;;;;;;1.06;30.99;98583.73;110264;1244;70558;-64
2022/03/11 07:21:19;;;;;;;7.40;5.40;;;;;;;0.50;30.52;98585.78;110415;1244;67888;-63
2022/03/11 07:23:54;;;;;;;8.10;5.80;;;;;;;0.58;30.93;98584.28;110356;1244;69521;-61
2022/03/11 07:26:23;;;;;;;11.90;9.00;;;;;;;0.27;30.74;98584.70;110325;1244;58872;-62
2022/03/11 07:28:52;;;;;;;12.40;7.90;;;;;;;0.50;31.57;98583.36;110113;1247;58939;-66
2022/03/11 07:31:28;;;;;;;10.40;6.90;;;;;;;1.12;31.88;98580.36;110410;1244;70243;-66
2022/03/11 07:34:00;;;;;;;15.70;8.70;;;;;;;1.83;31.79;98570.69;110113;1247;68703;-68
2022/03/11 07:36:32;;;;;;;10.80;7.00;;;;;;;2.64;30.33;98575.18;110354;1244;69409;-66
2022/03/11 07:39:06;;;;;;;11.50;8.30;;;;;;;3.39;29.25;98569.62;110346;1244;58947;-68
2022/03/11 07:41:36;;;;;;;12.70;8.60;;;;;;;4.09;27.91;98568.76;110474;1245;58942;-65
2022/03/11 07:44:06;;;;;;;12.50;8.50;;;;;;;4.70;26.79;98568.52;110378;1244;69787;-67
2022/03/11 07:46:43;;;;;;;10.80;8.30;;;;;;;5.21;25.67;98564.98;110131;1244;67782;-66
2022/03/11 07:49:14;;;;;;;12.80;8.20;;;;;;;5.16;25.29;98564.81;110146;1247;68649;-66
2022/03/11 07:51:43;;;;;;;10.70;7.80;;;;;;;5.64;26.57;98563.73;110125;1247;59252;-62
2022/03/11 07:54:12;;;;;;;12.90;8.80;;;;;;;6.25;25.55;98557.21;110355;1244;58934;-64
2022/03/11 07:56:42;;;;;;;9.50;7.30;;;;;;;6.45;24.22;98554.23;110421;1244;70594;-66
2022/03/11 07:59:11;;;;;;;12.60;8.50;;;;;;;6.74;24.34;98554.69;110176;1244;67856;-63
2022/03/11 08:01:42;;;;;;;12.10;8.20;;;;;;;6.60;23.78;98552.78;110370;1244;68646;-64
2022/03/11 08:04:13;;;;;;;11.50;8.30;;;;;;;6.88;24.27;98549.61;110122;1247;58911;-63
2022/03/11 08:06:43;;;;;;;11.40;8.00;;;;;;;7.19;23.55;98547.66;110445;1244;58874;-60
2022/03/11 08:09:12;;;;;;;12.80;8.30;;;;;;;7.46;23.03;98544.81;110428;1243;70829;-66
2022/03/11 08:11:42;;;;;;;9.30;6.40;;;;;;;7.44;22.59;98545.44;110409;1245;67759;-67
2022/03/11 08:14:13;;;;;;;8.80;6.70;;;;;;;7.61;24.08;98541.92;110355;1244;68543;-69
2022/03/11 08:16:43;;;;;;;9.90;7.30;;;;;;;7.82;23.22;98544.67;110313;1245;58960;-67
2022/03/11 08:19:13;;;;;;;8.40;5.70;;;;;;;6.47;21.52;98540.59;110344;1244;58901;-66
2022/03/11 08:21:54;;;;;;;8.80;6.70;;;;;;;6.62;22.74;98536.42;110168;1247;69964;-66
2022/03/11 08:24:23;;;;;;;10.40;6.40;;;;;;;6.60;22.47;98534.41;110257;1245;67842;-67
2022/03/11 08:26:52;;;;;;;9.00;5.60;;;;;;;7.37;22.54;98528.20;110344;1245;68708;-68
2022/03/11 08:29:24;;;;;;;7.90;5.90;;;;;;;7.60;21.53;98527.39;110214;1247;58953;-64
2022/03/11 08:31:54;;;;;;;8.10;5.50;;;;;;;7.34;19.87;98521.52;110170;1245;58872;-68
2022/03/11 08:34:30;;;;;;;8.40;6.20;;;;;;;6.83;20.72;98518.63;110250;1244;69898;-66
2022/03/11 08:37:22;;;;;;;6.90;5.30;;;;;;;6.64;21.07;98513.13;110094;1246;68954;-71
2022/03/11 08:39:54;;;;;;;7.20;5.20;;;;;;;6.51;21.47;98515.70;110098;1247;69344;-72
2022/03/11 08:42:24;;;;;;;5.30;4.50;;;;;;;7.12;21.07;98511.23;110339;1244;60057;-72
2022/03/11 08:44:56;;;;;;;5.90;3.80;;;;;;;7.70;20.88;98510.48;110123;1245;59693;-69
2022/03/11 08:47:26;;;;;;;4.70;3.20;;;;;;;8.02;19.36;98512.16;110266;1245;71616;-69
2022/03/11 08:49:56;;;;;;;;;;;;;;;7.65;18.96;98502.88;110194;1247;68586;-65
2022/03/11 08:52:28;;;;;;;5.90;3.40;;;;;;;7.61;19.23;98505.64;110189;1247;68350;-68
2022/03/11 08:54:57;;;;;;;6.00;4.00;;;;;;;8.46;19.37;98504.78;110463;1244;59719;-71
2022/03/11 08:57:26;;;;;;;5.50;3.60;;;;;;;9.03;18.63;98499.96;110228;1247;59697;-69
2022/03/11 09:00:03;;;;;;;6.10;3.90;;;;;;;9.17;18.01;98494.39;110397;1245;73143;-66
2022/03/11 09:02:37;;;;;;;5.10;3.80;;;;;;;7.46;18.13;98496.52;110198;1247;68530;-63
2022/03/11 09:05:08;;;;;;;3.90;3.10;;;;;;;8.35;18.62;98498.36;110143;1244;69564;-64
2022/03/11 09:07:38;;;;;;;5.70;3.80;;;;;;;9.11;18.08;98486.04;110275;1247;59700;-64
2022/03/11 09:10:09;;;;;;;4.60;3.40;;;;;;;9.71;17.50;98481.21;110432;1244;59668;-66
2022/03/11 09:12:40;;;;;;;5.30;3.60;;;;;;;10.01;17.17;98476.17;110127;1247;71926;-66
2022/03/11 09:15:10;;;;;;;5.40;3.30;;;;;;;10.19;16.54;98477.13;110351;1244;68624;-66
2022/03/11 09:17:41;;;;;;;5.70;3.60;;;;;;;10.52;16.12;98483.16;110417;1247;69622;-68
2022/03/11 09:20:12;;;;;;;5.80;3.10;;;;;;;9.78;15.79;98482.20;110358;1244;59769;-68
2022/03/11 09:22:50;;;;;;;5.00;3.50;;;;;;;10.15;16.69;98478.52;110291;1244;59714;-69
2022/03/11 09:25:20;;;;;;;5.00;3.30;;;;;;;10.60;16.27;98477.33;110329;1245;71201;-68
2022/03/11 09:27:49;;;;;;;5.90;3.50;;;;;;;10.49;16.08;98476.88;110125;1247;67623;-69
2022/03/11 09:30:19;;;;;;;5.20;3.30;;;;;;;11.00;15.84;98471.71;110344;1244;69466;-69
2022/03/11 09:32:48;;;;;;;4.10;3.00;;;;;;;11.18;15.07;98468.94;110090;1247;59718;-69
2022/03/11 09:35:17;;;;;;;3.40;2.50;;;;;;;11.07;14.95;98465.36;110169;1246;59798;-66
2022/03/11 09:37:47;;;;;;;7.10;3.30;;;;;;;11.69;14.65;98468.87;110041;1247;71705;-62
2022/03/11 09:40:18;;;;;;;5.90;3.80;;;;;;;11.94;14.54;98464.36;110142;1247;67837;-64
2022/03/11 09:42:51;;;;;;;4.40;3.50;;;;;;;11.48;14.41;98459.48;109881;1246;69509;-64
2022/03/11 09:45:23;;;;;;;4.90;3.60;;;;;;;11.59;14.82;98458.84;110112;1247;59736;-66
2022/03/11 09:47:53;;;;;;;4.30;3.00;;;;;;;11.77;14.57;98452.29;110507;1244;59679;-69
2022/03/11 09:50:29;;;;;;;5.00;3.40;;;;;;;11.51;14.40;98449.84;110224;1244;71631;-69
2022/03/11 09:52:59;;;;;;;3.60;3.00;;;;;;;11.69;14.87;98452.10;110329;1245;68579;-68
2022/03/11 09:55:29;;;;;;;4.10;2.90;;;;;;;11.72;13.50;98449.14;110134;1247;68753;-66
2022/03/11 09:57:59;;;;;;;4.80;3.10;;;;;;;12.12;13.87;98454.70;110320;1244;59724;-75
2022/03/11 10:00:28;;;;;;;4.60;3.80;;;;;;;12.29;13.69;98450.50;110278;1245;59722;-67
2022/03/11 10:02:58;;;;;;;6.10;3.50;;;;;;;11.75;13.78;98445.59;110425;1245;70768;-65
2022/03/11 10:05:52;;;;;;;5.00;3.30;;;;;;;12.62;13.32;98437.38;110152;1247;67875;-65
2022/03/11 10:08:37;;;;;;;5.70;4.10;;;;;;;13.31;13.21;98445.91;110270;1245;69834;-64
2022/03/11 10:11:20;;;;;;;5.40;3.60;;;;;;;13.59;13.10;98439.64;110176;1247;59699;-67
2022/03/11 10:14:03;;;;;;;6.50;4.20;;;;;;;14.16;12.82;98441.31;110287;1244;59721;-64
2022/03/11 10:16:33;;;;;;;5.20;3.40;;;;;;;13.89;12.39;98437.17;110109;1248;71618;-64
2022/03/11 10:19:08;;;;;;;4.80;3.30;;;;;;;13.12;12.36;98434.23;110395;1247;67795;-69
2022/03/11 10:21:41;;;;;;;5.00;3.50;;;;;;;13.62;12.16;98433.00;110075;1247;69419;-71
2022/03/11 10:24:14;;;;;;;6.30;4.00;;;;;;;12.79;12.41;98434.52;110266;1247;59739;-69
2022/03/11 10:26:49;;;;;;;5.10;4.10;;;;;;;11.23;13.08;98435.32;110424;1245;59667;-70
2022/03/11 10:29:25;;;;;;;6.60;4.10;;;;;;;11.63;14.05;98436.57;110125;1247;71668;-70
2022/03/11 10:32:00;;;;;;;6.10;4.40;;;;;;;12.24;13.32;98430.02;110390;1244;68610;-69
2022/03/11 10:34:34;;;;;;;5.50;4.40;;;;;;;12.14;13.13;98426.61;110611;1245;68673;-67
2022/03/11 10:37:08;;;;;;;7.00;4.30;;;;;;;10.76;13.69;98423.92;110157;1247;59699;-68
2022/03/11 10:39:43;;;;;;;5.60;4.20;;;;;;;11.17;14.12;98418.75;110360;1244;59611;-68
2022/03/11 10:42:12;;;;;;;5.10;3.90;;;;;;;11.57;13.50;98421.54;110179;1247;70849;-68
2022/03/11 10:44:54;;;;;;;6.80;4.20;;;;;;;11.59;13.69;98425.98;110435;1245;68563;-67
2022/03/11 10:47:37;;;;;;;5.90;4.20;;;;;;;12.21;13.05;98419.36;110253;1245;70012;-72
2022/03/11 10:50:12;;;;;;;6.00;4.00;;;;;;;13.19;13.02;98415.06;110097;1247;59756;-72
2022/03/11 10:52:47;;;;;;;5.40;4.20;;;;;;;13.12;12.25;98418.81;110356;1247;59678;-72
2022/03/11 10:55:26;;;;;;;5.40;3.70;;;;;;;12.13;12.28;98415.86;110142;1247;71719;-69
2022/03/11 10:57:57;;;;;;;5.30;3.60;;;;;;;13.15;12.55;98408.67;110478;1245;68870;-66
2022/03/11 11:00:35;;;;;;;5.70;4.20;;;;;;;13.69;12.47;98402.72;110140;1245;69475;-72
2022/03/11 11:03:07;;;;;;;5.30;3.80;;;;;;;12.88;12.58;98405.03;110002;1248;59726;-65
2022/03/11 11:05:37;;;;;;;5.30;3.90;;;;;;;13.28;12.41;98410.45;110142;1247;59721;-66
2022/03/11 11:08:07;;;;;;;5.60;4.20;;;;;;;13.77;12.08;98407.93;110122;1247;71624;-67
2022/03/11 11:10:38;;;;;;;6.60;4.20;;;;;;;14.60;11.54;98404.64;110329;1247;68079;-68
2022/03/11 11:13:09;;;;;;;6.30;4.30;;;;;;;13.94;11.41;98399.34;110568;1244;68814;-65
2022/03/11 11:15:40;;;;;;;4.40;3.30;;;;;;;13.43;11.80;98394.02;110400;1247;59699;-68
2022/03/11 11:18:18;;;;;;;5.50;4.10;;;;;;;14.18;12.04;98393.82;110060;1247;59678;-69
2022/03/11 11:21:08;;;;;;;7.40;4.70;;;;;;;15.14;11.60;98396.02;110152;1247;70795;-66
2022/03/11 11:24:04;;;;;;;6.60;5.00;;;;;;;15.38;10.75;98397.18;110273;1246;68067;-66
2022/03/11 11:27:01;;;;;;;6.40;4.70;;;;;;;15.37;10.80;98397.29;110382;1245;68763;-63
2022/03/11 11:29:51;;;;;;;6.80;4.70;;;;;;;15.91;10.34;98386.95;110105;1247;59662;-71
2022/03/11 11:32:30;;;;;;;7.30;5.40;;;;;;;15.92;10.18;98381.02;110383;1247;59634;-69
2022/03/11 11:35:25;;;;;;;7.50;4.90;;;;;;;15.74;10.49;98381.73;110373;1247;70495;-69
2022/03/11 11:38:10;;;;;;;11.00;7.80;;;;;;;16.46;10.02;98369.85;110466;1247;67898;-68
2022/03/11 11:41:03;;;;;;;7.90;5.40;;;;;;;16.80;9.93;98363.38;110134;1247;68729;-69
2022/03/11 11:43:58;;;;;;;6.20;4.60;;;;;;;17.21;10.00;98364.35;110520;1244;59736;-73